Time;durP1;ratioP1;P1;durP2;ratioP2;P2;SDS_P1;SDS_P2;PMS_P1;PMS_P2;Temp;Humidity;BMP_temperature;BMP_pressure;BME280_temperature;BME280_humidity;BME280_pressure;Samples;Min_cycle;Max_cycle;Signal;HPM_P1;HPM_P2
2022/12/19 00:01:18;;;;;;;0.43;0.35;;;;;;;18.18;100.00;98359.69;7395395;19;20011;-56
2022/12/19 00:03:46;;;;;;;1.75;0.45;;;;;;;18.05;100.00;98356.31;7397543;19;20032;-55
2022/12/19 00:06:13;;;;;;;0.28;0.20;;;;;;;18.11;100.00;98349.16;7393525;19;20014;-55
2022/12/19 00:08:42;;;;;;;1.55;0.20;;;;;;;18.17;100.00;98349.72;7393631;19;20035;-56
2022/12/19 00:11:09;;;;;;;1.48;0.25;;;;;;;18.29;100.00;98358.56;7392408;19;20049;-56
2022/12/19 00:13:35;;;;;;;0.40;0.30;;;;;;;18.29;100.00;98340.88;7395877;19;20031;-56
2022/12/19 00:16:10;;;;;;;0.17;0.13;;;;;;;18.30;100.00;98345.22;7392999;19;20038;-56
2022/12/19 00:18:38;;;;;;;0.40;0.30;;;;;;;18.17;100.00;98341.25;7392543;19;20014;-56
2022/12/19 00:21:05;;;;;;;1.85;0.30;;;;;;;18.36;100.00;98340.88;7394183;19;20078;-56
2022/12/19 00:23:33;;;;;;;4.60;0.45;;;;;;;18.47;100.00;98340.53;7397142;19;20018;-56
2022/12/19 00:26:13;;;;;;;0.47;0.20;;;;;;;18.45;100.00;98348.78;7392884;19;20014;-56
2022/12/19 00:28:41;;;;;;;0.40;0.40;;;;;;;18.64;100.00;98351.19;7392773;19;20010;-56
2022/12/19 00:31:08;;;;;;;0.30;0.30;;;;;;;18.73;100.00;98342.16;7389705;19;20474;-56
2022/12/19 00:33:34;;;;;;;5.72;0.52;;;;;;;18.60;100.00;98342.38;7396870;19;20011;-56
2022/12/19 00:36:04;;;;;;;0.30;0.30;;;;;;;18.70;100.00;98346.88;7390649;19;20045;-56
2022/12/19 00:38:32;;;;;;;0.20;0.20;;;;;;;18.88;100.00;98350.56;7390338;19;20018;-56
2022/12/19 00:41:09;;;;;;;1.40;0.93;;;;;;;19.05;100.00;98350.69;7391199;19;20311;-56
2022/12/19 00:43:35;;;;;;;1.55;0.73;;;;;;;19.34;98.97;98351.91;7396497;19;20015;-56
2022/12/19 00:46:04;;;;;;;2.70;0.57;;;;;;;19.30;98.80;98345.88;7392153;19;20471;-56
2022/12/19 00:48:31;;;;;;;0.20;0.20;;;;;;;19.04;100.00;98345.59;7390343;19;20033;-56
2022/12/19 00:50:59;;;;;;;3.92;0.55;;;;;;;19.18;100.00;98356.09;7390938;19;20463;-56
2022/12/19 00:53:25;;;;;;;0.57;0.57;;;;;;;19.28;99.77;98342.88;7394736;19;20056;-56
2022/12/19 00:55:52;;;;;;;9.88;0.63;;;;;;;19.22;100.00;98333.88;7391477;19;20027;-56
2022/12/19 00:58:18;;;;;;;10.43;3.00;;;;;;;19.23;100.00;98329.72;7389932;19;20010;-56
2022/12/19 01:00:44;;;;;;;0.35;0.10;;;;;;;19.22;100.00;98333.88;7390539;19;20013;-56
2022/12/19 01:03:11;;;;;;;0.75;0.63;;;;;;;19.36;100.00;98332.31;7394606;19;20006;-56
2022/12/19 01:05:38;;;;;;;5.32;2.72;;;;;;;19.53;99.29;98323.94;7389544;19;20029;-56
2022/12/19 01:08:04;;;;;;;4.70;1.73;;;;;;;19.45;98.87;98319.66;7391812;19;20018;-57
2022/12/19 01:10:30;;;;;;;0.57;0.20;;;;;;;19.46;98.66;98324.75;7388064;19;20585;-56
2022/12/19 01:12:56;;;;;;;0.40;0.40;;;;;;;19.58;97.35;98325.78;7394149;19;20010;-56
2022/12/19 01:15:23;;;;;;;1.40;1.00;;;;;;;19.47;98.03;98322.66;7389473;19;20337;-56
2022/12/19 01:17:49;;;;;;;1.27;1.17;;;;;;;19.52;97.44;98311.16;7391324;19;20025;-57
2022/12/19 01:20:20;;;;;;;1.83;1.75;;;;;;;19.54;97.23;98325.44;7391320;19;20022;-56
2022/12/19 01:22:47;;;;;;;5.30;2.83;;;;;;;19.53;98.14;98337.31;7392615;19;20014;-56
2022/12/19 01:25:14;;;;;;;0.43;0.43;;;;;;;19.29;97.99;98324.63;7390887;19;20074;-56
2022/12/19 01:27:40;;;;;;;1.40;1.27;;;;;;;19.41;97.98;98320.06;7390431;19;20018;-56
2022/12/19 01:30:07;;;;;;;0.10;0.10;;;;;;;19.58;97.30;98325.03;7389570;19;20081;-56
2022/12/19 01:32:35;;;;;;;0.63;0.63;;;;;;;19.43;97.33;98313.84;7392301;19;20333;-56
2022/12/19 01:35:02;;;;;;;2.70;1.25;;;;;;;19.37;97.94;98311.25;7390256;19;20336;-56
2022/12/19 01:37:28;;;;;;;0.57;0.57;;;;;;;19.40;97.22;98320.66;7390500;19;20417;-56
2022/12/19 01:39:57;;;;;;;6.68;2.45;;;;;;;19.37;96.53;98316.13;7389317;19;20066;-56
2022/12/19 01:42:23;;;;;;;0.52;0.52;;;;;;;19.26;97.49;98317.28;7392339;19;20025;-56
2022/12/19 01:45:01;;;;;;;0.20;0.20;;;;;;;19.39;98.06;98308.59;7389843;19;20019;-56
2022/12/19 01:47:28;;;;;;;0.20;0.20;;;;;;;19.60;97.10;98314.66;7389489;19;20019;-57
2022/12/19 01:49:55;;;;;;;0.73;0.63;;;;;;;19.72;97.81;98317.03;7397037;19;20344;-56
2022/12/19 01:52:22;;;;;;;0.35;0.20;;;;;;;19.96;97.11;98310.66;7397865;19;20514;-56
2022/12/19 01:54:48;;;;;;;1.17;0.75;;;;;;;20.09;97.71;98316.00;7396983;19;20018;-56
2022/12/19 01:57:18;;;;;;;5.65;0.32;;;;;;;20.33;99.33;98312.41;7397725;19;20383;-56
2022/12/19 01:59:49;;;;;;;0.22;0.20;;;;;;;20.58;97.84;98321.59;7396186;19;20368;-56
2022/12/19 02:02:31;;;;;;;2.17;1.38;;;;;;;20.39;98.25;98304.44;7395903;19;20027;-56
2022/12/19 02:05:00;;;;;;;0.10;0.00;;;;;;;20.46;100.00;98309.28;7397646;19;20011;-56
2022/12/19 02:07:27;;;;;;;0.10;0.00;;;;;;;20.69;100.00;98306.94;7396322;19;20014;-56
2022/12/19 02:09:55;;;;;;;0.10;0.10;;;;;;;20.85;100.00;98305.44;7397477;19;20362;-56
2022/12/19 02:12:27;;;;;;;0.10;0.10;;;;;;;20.85;100.00;98311.09;7396976;19;20086;-56
2022/12/19 02:14:56;;;;;;;0.25;0.25;;;;;;;20.88;100.00;98306.34;7397728;19;20042;-56
2022/12/19 02:17:33;;;;;;;0.10;0.10;;;;;;;21.11;100.00;98310.41;7399610;19;20018;-56
2022/12/19 02:20:15;;;;;;;1.52;1.42;;;;;;;21.18;100.00;98313.75;7395521;19;20022;-56
2022/12/19 02:22:59;;;;;;;1.73;1.60;;;;;;;21.35;100.00;98308.03;7397625;19;20014;-56
2022/12/19 02:26:04;;;;;;;0.10;0.00;;;;;;;21.43;100.00;98317.19;7394613;19;20037;-56
2022/12/19 02:28:42;;;;;;;2.55;1.88;;;;;;;21.58;100.00;98299.97;7395438;19;20019;-56
2022/12/19 02:31:16;;;;;;;0.90;0.17;;;;;;;21.69;99.24;98300.19;7394539;19;20025;-56
2022/12/19 02:33:52;;;;;;;3.20;1.05;;;;;;;21.52;99.79;98300.25;7398838;19;20014;-56
2022/12/19 02:36:37;;;;;;;0.32;0.15;;;;;;;21.50;100.00;98307.84;7394434;19;20475;-56
2022/12/19 02:39:16;;;;;;;0.50;0.43;;;;;;;21.44;100.00;98313.03;7394749;19;20021;-56
2022/12/19 02:41:57;;;;;;;2.60;1.67;;;;;;;21.69;100.00;98305.09;7392581;19;20007;-56
2022/12/19 02:44:29;;;;;;;0.20;0.15;;;;;;;21.50;100.00;98311.41;7395173;19;20027;-56
2022/12/19 02:46:59;;;;;;;0.50;0.10;;;;;;;21.35;100.00;98313.72;7394587;19;20459;-56
2022/12/19 02:49:28;;;;;;;0.37;0.20;;;;;;;21.37;100.00;98308.22;7394536;19;20471;-56
2022/12/19 02:51:55;;;;;;;1.13;0.22;;;;;;;21.47;100.00;98300.50;7398000;19;20018;-56
2022/12/19 02:54:22;;;;;;;0.20;0.20;;;;;;;21.24;100.00;98305.75;7394782;19;20025;-56
2022/12/19 02:56:51;;;;;;;0.05;0.00;;;;;;;20.98;100.00;98302.28;7393823;19;20031;-56
2022/12/19 02:59:27;;;;;;;2.50;0.75;;;;;;;21.12;100.00;98294.94;7392110;19;20010;-56
2022/12/19 03:02:42;;;;;;;0.95;0.90;;;;;;;21.25;100.00;98299.47;7394067;19;20079;-56
2022/12/19 03:05:44;;;;;;;0.10;0.10;;;;;;;21.54;100.00;98299.66;7393298;19;20007;-56
2022/12/19 03:08:28;;;;;;;;;;;;;;;21.69;100.00;98293.75;7396008;19;20025;-56
2022/12/19 03:11:05;;;;;;;0.30;0.30;;;;;;;22.04;100.00;98300.78;7394170;19;19915;-56
2022/12/19 03:13:43;;;;;;;0.40;0.05;;;;;;;21.87;99.88;98298.78;7398343;19;20014;-56
2022/12/19 03:16:11;;;;;;;2.72;1.45;;;;;;;21.89;98.99;98289.69;7393128;19;20007;-56
2022/12/19 03:18:38;;;;;;;0.20;0.10;;;;;;;21.80;99.31;98293.97;7391467;19;20034;-56
2022/12/19 03:21:24;;;;;;;1.17;0.32;;;;;;;22.00;98.94;98294.81;7394209;19;20565;-56
2022/12/19 03:23:54;;;;;;;0.10;0.03;;;;;;;22.13;99.30;98283.06;7396094;19;20022;-56
2022/12/19 03:26:27;;;;;;;0.00;0.00;;;;;;;22.00;99.10;98280.63;7395054;19;20027;-56
2022/12/19 03:29:04;;;;;;;0.10;0.10;;;;;;;21.81;99.22;98294.69;7394859;19;20006;-56
2022/12/19 03:31:32;;;;;;;0.90;0.10;;;;;;;21.77;100.00;98295.13;7394905;19;20020;-56
2022/12/19 03:34:34;;;;;;;0.52;0.52;;;;;;;21.81;99.55;98295.44;7394709;19;20663;-56
2022/12/19 03:37:02;;;;;;;0.10;0.10;;;;;;;21.68;98.94;98292.25;7394422;19;20014;-56
2022/12/19 03:39:31;;;;;;;1.35;0.40;;;;;;;21.65;99.74;98290.59;7394995;19;20006;-56
2022/12/19 03:44:48;;;;;;;0.00;0.00;;;;;;;22.10;100.00;98284.22;7393721;19;20010;-56
2022/12/19 03:47:17;;;;;;;0.47;0.15;;;;;;;22.38;98.55;98283.53;7393263;19;20015;-56
2022/12/19 03:49:44;;;;;;;0.17;0.10;;;;;;;22.48;97.69;98272.22;7394293;19;20038;-55
2022/12/19 03:52:14;;;;;;;1.27;0.10;;;;;;;22.17;100.00;98269.19;7394430;19;20007;-56
2022/12/19 03:54:47;;;;;;;0.10;0.10;;;;;;;22.14;100.00;98270.34;7394023;19;20078;-55
2022/12/19 03:57:24;;;;;;;0.32;0.28;;;;;;;22.38;99.22;98269.34;7393812;19;20021;-56
2022/12/19 03:59:57;;;;;;;0.15;0.15;;;;;;;22.24;100.00;98278.91;7393782;19;20201;-56
2022/12/19 04:02:24;;;;;;;0.10;0.10;;;;;;;22.18;100.00;98276.31;7391473;19;20011;-55
2022/12/19 04:04:55;;;;;;;0.17;0.10;;;;;;;22.15;100.00;98283.19;7393039;19;20006;-56
2022/12/19 04:07:22;;;;;;;0.20;0.20;;;;;;;22.48;100.00;98283.56;7393743;19;20032;-56
2022/12/19 04:09:50;;;;;;;0.50;0.20;;;;;;;22.31;100.00;98278.75;7392231;19;20459;-56
2022/12/19 04:12:20;;;;;;;0.10;0.10;;;;;;;22.56;99.67;98281.31;7394704;19;20007;-56
2022/12/19 04:14:48;;;;;;;0.45;0.22;;;;;;;22.57;99.53;98289.22;7393587;19;20017;-56
2022/12/19 04:17:36;;;;;;;0.10;0.10;;;;;;;22.65;99.24;98285.53;7392246;19;20343;-56
2022/12/19 04:20:13;;;;;;;0.10;0.08;;;;;;;22.26;100.00;98290.38;7393169;19;20010;-56
2022/12/19 04:22:51;;;;;;;0.52;0.30;;;;;;;22.17;100.00;98286.19;7394683;19;20018;-56
2022/12/19 04:25:26;;;;;;;0.10;0.10;;;;;;;22.07;100.00;98281.84;7393010;19;20026;-56
2022/12/19 04:27:58;;;;;;;0.10;0.10;;;;;;;22.01;100.00;98273.59;7391828;19;20070;-56
2022/12/19 04:30:24;;;;;;;0.17;0.13;;;;;;;22.16;100.00;98287.53;7392427;19;20026;-56
2022/12/19 04:32:50;;;;;;;0.08;0.08;;;;;;;22.26;100.00;98281.88;7394543;19;20470;-56
2022/12/19 04:35:17;;;;;;;0.00;0.00;;;;;;;22.41;100.00;98282.34;7392535;19;20586;-56
2022/12/19 04:37:43;;;;;;;0.10;0.10;;;;;;;22.58;100.00;98273.72;7392464;19;20010;-56
2022/12/19 04:40:10;;;;;;;0.28;0.20;;;;;;;22.65;100.00;98277.78;7391701;19;20328;-56
2022/12/19 04:42:36;;;;;;;0.47;0.47;;;;;;;22.89;100.00;98275.97;7394986;19;20010;-56
2022/12/19 04:45:04;;;;;;;0.10;0.10;;;;;;;22.73;100.00;98283.28;7392138;19;20802;-56
2022/12/19 04:47:31;;;;;;;0.10;0.00;;;;;;;22.96;100.00;98272.22;7391720;19;20094;-56
2022/12/19 04:49:57;;;;;;;0.43;0.43;;;;;;;22.99;99.98;98268.19;7392405;19;20416;-56
2022/12/19 04:52:23;;;;;;;0.35;0.17;;;;;;;22.96;99.79;98272.22;7392098;19;20014;-56
2022/12/19 04:54:49;;;;;;;0.10;0.00;;;;;;;23.07;98.93;98268.75;7392048;19;20018;-56
2022/12/19 04:57:15;;;;;;;0.00;0.00;;;;;;;23.19;99.01;98272.50;7392288;19;20017;-56
2022/12/19 04:59:41;;;;;;;0.20;0.20;;;;;;;22.85;100.00;98278.50;7395221;19;20014;-56
2022/12/19 05:02:07;;;;;;;10.25;0.75;;;;;;;23.07;99.59;98268.75;7390781;19;20011;-56
2022/12/19 05:04:33;;;;;;;0.32;0.13;;;;;;;23.07;98.92;98280.88;7391315;19;20014;-56
2022/12/19 05:07:00;;;;;;;0.20;0.10;;;;;;;22.81;99.68;98278.19;7391412;19;20010;-56
2022/12/19 05:09:26;;;;;;;0.10;0.00;;;;;;;22.73;100.00;98274.78;7391963;19;20493;-56
2022/12/19 05:11:52;;;;;;;0.03;0.00;;;;;;;22.72;100.00;98276.13;7392479;19;20007;-56
2022/12/19 05:14:18;;;;;;;0.00;0.00;;;;;;;22.88;100.00;98268.78;7391456;19;20018;-56
2022/12/19 05:16:44;;;;;;;2.38;0.30;;;;;;;22.94;100.00;98267.13;7390812;19;20372;-56
2022/12/19 05:19:10;;;;;;;0.00;0.00;;;;;;;22.79;100.00;98266.69;7391413;19;20037;-56
2022/12/19 05:21:36;;;;;;;1.88;0.40;;;;;;;22.78;100.00;98262.38;7391659;19;20018;-56
2022/12/19 05:24:03;;;;;;;0.00;0.00;;;;;;;22.77;100.00;98260.88;7388192;19;20347;-56
2022/12/19 05:26:29;;;;;;;0.08;0.08;;;;;;;22.67;100.00;98268.66;7390768;19;20011;-56
2022/12/19 05:28:55;;;;;;;0.10;0.00;;;;;;;22.72;100.00;98276.13;7391512;19;20022;-56
2022/12/19 05:31:21;;;;;;;0.10;0.10;;;;;;;22.66;100.00;98264.31;7389989;19;20347;-56
2022/12/19 05:33:48;;;;;;;0.73;0.20;;;;;;;22.63;100.00;98264.16;7390084;19;20010;-56
2022/12/19 05:36:15;;;;;;;0.30;0.25;;;;;;;22.63;100.00;98264.16;7390063;19;20017;-56
2022/12/19 05:38:42;;;;;;;0.05;0.05;;;;;;;22.59;100.00;98266.69;7389642;19;20019;-56
2022/12/19 05:41:11;;;;;;;0.00;0.00;;;;;;;22.67;100.00;98268.66;7389175;19;20027;-56
2022/12/19 05:43:37;;;;;;;0.00;0.00;;;;;;;22.65;100.00;98266.41;7394640;19;20345;-56
2022/12/19 05:46:04;;;;;;;0.05;0.00;;;;;;;22.72;100.00;98259.09;7390494;19;20018;-56
2022/12/19 05:48:31;;;;;;;0.00;0.00;;;;;;;22.78;100.00;98248.19;7390127;19;20014;-56
2022/12/19 05:50:57;;;;;;;0.00;0.00;;;;;;;22.63;100.00;98252.81;7392915;19;20503;-56
2022/12/19 05:53:23;;;;;;;0.10;0.00;;;;;;;22.82;100.00;98248.47;7393690;19;20018;-56
2022/12/19 05:55:49;;;;;;;0.55;0.10;;;;;;;22.96;100.00;98240.97;7389928;19;20500;-56
2022/12/19 05:58:18;;;;;;;0.03;0.00;;;;;;;22.97;100.00;98245.31;7389500;19;20506;-56
2022/12/19 06:00:44;;;;;;;0.00;0.00;;;;;;;23.08;100.00;98244.69;7389392;19;20014;-56
2022/12/19 06:03:10;;;;;;;0.00;0.00;;;;;;;23.09;100.00;98246.94;7393585;19;20017;-56
2022/12/19 06:05:37;;;;;;;0.10;0.10;;;;;;;23.44;99.73;98252.25;7388058;19;20090;-56
2022/12/19 06:08:04;;;;;;;0.10;0.10;;;;;;;23.28;99.91;98249.00;7390278;19;20755;-56
2022/12/19 06:10:30;;;;;;;0.00;0.00;;;;;;;23.44;99.99;98247.31;7390173;19;20215;-56
2022/12/19 06:12:57;;;;;;;0.10;0.00;;;;;;;23.68;97.99;98249.03;7392786;19;20361;-56
2022/12/19 06:15:23;;;;;;;0.05;0.00;;;;;;;23.98;96.44;98248.25;7388828;19;20358;-56
2022/12/19 06:17:52;;;;;;;0.65;0.10;;;;;;;24.10;95.15;98249.09;7388747;19;20363;-55
2022/12/19 06:20:18;;;;;;;0.00;0.00;;;;;;;24.12;94.03;98244.91;7389848;19;20089;-55
2022/12/19 06:22:45;;;;;;;0.10;0.10;;;;;;;24.00;94.23;98245.56;7392163;19;20023;-56
2022/12/19 06:25:11;;;;;;;0.90;0.43;;;;;;;24.08;93.87;98251.81;7389900;19;20034;-56
2022/12/19 06:27:37;;;;;;;0.00;0.00;;;;;;;24.01;93.32;98247.06;7389814;19;20010;-56
2022/12/19 06:30:04;;;;;;;0.20;0.20;;;;;;;23.86;95.15;98236.06;7389452;19;20014;-56
2022/12/19 06:32:30;;;;;;;0.13;0.13;;;;;;;23.62;96.86;98239.31;7390772;19;20405;-56
2022/12/19 06:34:57;;;;;;;0.00;0.00;;;;;;;23.55;97.47;98237.41;7393197;19;20747;-56
2022/12/19 06:37:23;;;;;;;0.00;0.00;;;;;;;23.38;98.48;98244.06;7396665;19;20033;-55
2022/12/19 06:39:50;;;;;;;1.95;0.70;;;;;;;23.27;98.58;98244.66;7396952;19;20017;-56
2022/12/19 06:42:22;;;;;;;0.00;0.00;;;;;;;23.23;98.87;98236.59;7395693;19;20011;-56
2022/12/19 06:44:52;;;;;;;0.00;0.00;;;;;;;23.02;100.00;98239.31;7396092;19;20415;-56
2022/12/19 06:47:19;;;;;;;0.10;0.10;;;;;;;23.06;100.00;98233.19;7396028;19;20010;-55
2022/12/19 06:49:47;;;;;;;1.42;0.15;;;;;;;23.22;100.00;98231.50;7396827;19;20024;-56
2022/12/19 06:52:14;;;;;;;0.85;0.45;;;;;;;23.20;100.00;98234.19;7397004;19;20399;-56
2022/12/19 06:54:41;;;;;;;0.05;0.05;;;;;;;23.15;100.00;98233.16;7394737;19;20015;-56
2022/12/19 06:57:07;;;;;;;0.00;0.00;;;;;;;23.18;100.00;98240.50;7393955;19;20014;-56
2022/12/19 06:59:33;;;;;;;0.20;0.20;;;;;;;23.22;100.00;98237.19;7395585;19;20074;-55
2022/12/19 07:02:06;;;;;;;0.25;0.15;;;;;;;23.41;99.90;98231.50;7393332;19;20036;-55
2022/12/19 07:04:39;;;;;;;0.10;0.10;;;;;;;23.72;97.68;98226.56;7395418;19;20011;-56
2022/12/19 07:07:06;;;;;;;2.75;0.55;;;;;;;23.64;97.74;98237.38;7394367;19;20018;-56
2022/12/19 07:09:33;;;;;;;0.10;0.10;;;;;;;23.70;97.24;98229.25;7394274;19;20042;-56
2022/12/19 07:12:00;;;;;;;0.00;0.00;;;;;;;23.60;97.81;98231.41;7395301;19;20513;-55
2022/12/19 07:14:27;;;;;;;0.32;0.20;;;;;;;23.67;97.98;98233.31;7394123;19;20689;-55
2022/12/19 07:16:56;;;;;;;0.20;0.20;;;;;;;23.33;99.83;98225.22;7394601;19;20006;-56
2022/12/19 07:19:24;;;;;;;0.10;0.00;;;;;;;23.45;99.95;98223.25;7394473;19;20514;-56
2022/12/19 07:21:50;;;;;;;0.20;0.13;;;;;;;23.58;98.21;98216.31;7396489;19;20365;-55
2022/12/19 07:24:16;;;;;;;0.00;0.00;;;;;;;23.71;98.12;98216.53;7394918;19;20010;-56
2022/12/19 07:26:43;;;;;;;0.00;0.00;;;;;;;23.51;98.52;98208.69;7394399;19;20010;-56
2022/12/19 07:29:10;;;;;;;0.00;0.00;;;;;;;23.65;97.51;98213.25;7392950;19;21009;-55
2022/12/19 07:31:37;;;;;;;0.10;0.00;;;;;;;23.50;98.23;98219.31;7394995;19;20100;-55
2022/12/19 07:34:03;;;;;;;0.05;0.05;;;;;;;23.54;97.53;98216.75;7394514;19;20010;-56
2022/12/19 07:36:29;;;;;;;0.00;0.00;;;;;;;23.79;95.92;98224.88;7394175;19;20017;-56
2022/12/19 07:38:55;;;;;;;4.20;0.35;;;;;;;23.42;98.63;98221.59;7393980;19;20019;-56
2022/12/19 07:41:22;;;;;;;0.13;0.13;;;;;;;23.54;97.94;98227.41;7392624;19;20014;-56
2022/12/19 07:43:48;;;;;;;0.28;0.15;;;;;;;23.46;97.96;98238.94;7392709;19;20018;-55
2022/12/19 07:46:14;;;;;;;0.32;0.20;;;;;;;23.63;98.46;98233.03;7391577;19;20066;-55
2022/12/19 07:48:40;;;;;;;0.08;0.00;;;;;;;25.71;90.07;98229.69;7392323;19;20011;-56
2022/12/19 07:51:06;;;;;;;0.00;0.00;;;;;;;26.42;85.64;98224.00;7395087;19;20011;-56
2022/12/19 07:53:32;;;;;;;0.10;0.10;;;;;;;26.56;84.80;98221.97;7392633;19;20007;-56
2022/12/19 07:55:59;;;;;;;0.20;0.10;;;;;;;26.90;81.65;98234.63;7393093;19;20099;-56
2022/12/19 07:58:25;;;;;;;0.73;0.10;;;;;;;24.78;88.49;98235.16;7392990;19;20022;-56
2022/12/19 08:00:56;;;;;;;0.10;0.00;;;;;;;24.32;92.35;98232.78;7391824;19;20010;-56
2022/12/19 08:03:23;;;;;;;0.05;0.00;;;;;;;24.28;93.31;98226.13;7395935;19;20023;-56
2022/12/19 08:05:49;;;;;;;0.47;0.32;;;;;;;24.05;94.60;98244.50;7392501;19;20140;-56
2022/12/19 08:08:15;;;;;;;1.38;0.35;;;;;;;23.87;95.97;98229.00;7392992;19;20015;-56
2022/12/19 08:10:42;;;;;;;0.00;0.00;;;;;;;23.99;95.75;98209.94;7392531;19;20024;-56
2022/12/19 08:13:08;;;;;;;0.50;0.40;;;;;;;24.09;95.78;98213.50;7395856;19;20044;-56
2022/12/19 08:15:35;;;;;;;2.63;0.10;;;;;;;24.46;94.00;98216.66;7391869;19;20047;-56
2022/12/19 08:18:02;;;;;;;1.00;0.10;;;;;;;24.43;93.86;98220.00;7390918;19;20459;-56
2022/12/19 08:20:28;;;;;;;0.13;0.13;;;;;;;24.55;93.32;98220.78;7391645;19;20345;-55
2022/12/19 08:22:54;;;;;;;0.10;0.10;;;;;;;24.50;93.32;98221.88;7395547;19;20011;-56
2022/12/19 08:25:21;;;;;;;0.50;0.13;;;;;;;24.53;93.27;98214.97;7390553;19;20014;-56
2022/12/19 08:27:47;;;;;;;0.30;0.10;;;;;;;24.43;94.00;98226.41;7391580;19;20019;-56
2022/12/19 08:30:13;;;;;;;0.22;0.22;;;;;;;24.49;92.93;98206.91;7391990;19;20017;-56
2022/12/19 08:32:39;;;;;;;0.65;0.20;;;;;;;24.33;93.91;98225.00;7395181;19;20010;-56
2022/12/19 08:35:06;;;;;;;0.55;0.40;;;;;;;24.28;94.44;98223.25;7392382;19;20013;-56
2022/12/19 08:37:33;;;;;;;0.00;0.00;;;;;;;25.27;91.97;98227.63;7391042;19;20011;-55
2022/12/19 08:39:59;;;;;;;2.60;0.20;;;;;;;26.65;84.99;98215.34;7390977;19;20026;-56
2022/12/19 08:42:25;;;;;;;0.80;0.10;;;;;;;26.79;83.45;98209.75;7389186;19;20035;-56
2022/12/19 08:44:51;;;;;;;0.40;0.32;;;;;;;25.03;89.54;98211.84;7389018;19;20368;-56
2022/12/19 08:47:17;;;;;;;0.20;0.20;;;;;;;24.34;94.58;98226.50;7391886;19;20026;-56
2022/12/19 08:49:43;;;;;;;0.00;0.00;;;;;;;24.30;95.06;98220.56;7391955;19;20011;-56
2022/12/19 08:52:09;;;;;;;0.03;0.00;;;;;;;24.56;93.34;98214.47;7395561;19;20022;-56
2022/12/19 08:54:36;;;;;;;0.10;0.03;;;;;;;24.64;93.58;98219.97;7390015;19;20479;-55
2022/12/19 08:57:02;;;;;;;0.10;0.10;;;;;;;24.78;92.67;98215.22;7389425;19;20015;-56
2022/12/19 08:59:28;;;;;;;9.27;1.35;;;;;;;24.37;93.98;98211.78;7388420;19;20034;-55
2022/12/19 09:01:54;;;;;;;0.10;0.10;;;;;;;24.61;93.02;98206.94;7390912;19;20359;-56
2022/12/19 09:04:20;;;;;;;0.00;0.00;;;;;;;24.81;91.95;98205.44;7391569;19;20022;-56
2022/12/19 09:06:46;;;;;;;0.00;0.00;;;;;;;24.85;91.22;98217.09;7392114;19;20010;-56
2022/12/19 09:09:12;;;;;;;0.03;0.03;;;;;;;25.00;90.80;98216.66;7390853;19;20554;-56
2022/12/19 09:11:39;;;;;;;0.00;0.00;;;;;;;24.94;91.58;98213.41;7391946;19;20432;-55
2022/12/19 09:14:05;;;;;;;0.20;0.10;;;;;;;24.71;92.48;98216.88;7390652;19;20006;-56
2022/12/19 09:16:31;;;;;;;0.10;0.10;;;;;;;24.78;93.28;98212.38;7389298;19;20408;-56
2022/12/19 09:18:57;;;;;;;0.10;0.00;;;;;;;24.68;92.24;98208.84;7391229;19;20010;-55
2022/12/19 09:21:28;;;;;;;0.25;0.15;;;;;;;24.36;94.50;98201.03;7392992;19;20751;-56
2022/12/19 09:23:56;;;;;;;0.43;0.43;;;;;;;24.51;94.00;98212.00;7390359;19;20375;-56
2022/12/19 09:26:24;;;;;;;0.03;0.00;;;;;;;24.51;94.26;98212.00;7390959;19;20015;-56
2022/12/19 09:28:50;;;;;;;1.10;0.38;;;;;;;24.47;94.17;98206.03;7394991;19;20037;-56
2022/12/19 09:31:20;;;;;;;0.10;0.10;;;;;;;24.53;94.15;98201.50;7391066;19;20317;-56
2022/12/19 09:33:47;;;;;;;0.00;0.00;;;;;;;25.60;90.52;98196.19;7389936;19;20015;-56
2022/12/19 09:36:16;;;;;;;0.25;0.22;;;;;;;24.30;94.19;98200.63;7388759;19;20018;-56
2022/12/19 09:38:42;;;;;;;1.50;0.38;;;;;;;24.23;94.41;98199.50;7389580;19;20517;-56
2022/12/19 09:41:45;;;;;;;0.10;0.00;;;;;;;23.87;96.62;98192.06;7389068;19;20471;-56
2022/12/19 09:44:37;;;;;;;0.10;0.10;;;;;;;24.25;96.05;98193.19;7390694;19;20011;-56
2022/12/19 09:47:12;;;;;;;;;;;;;;;25.12;93.26;98196.75;7390961;19;20014;-56
2022/12/19 09:49:44;;;;;;;0.10;0.10;;;;;;;25.11;90.70;98210.25;7390483;19;19922;-56
2022/12/19 09:52:19;;;;;;;0.43;0.13;;;;;;;24.98;90.73;98207.22;7390360;19;20038;-56
2022/12/19 09:54:55;;;;;;;1.20;0.47;;;;;;;24.81;91.64;98199.75;7387259;19;20010;-56
2022/12/19 09:57:48;;;;;;;0.75;0.35;;;;;;;24.74;92.20;98206.38;7387178;19;20082;-56
2022/12/19 10:00:18;;;;;;;0.68;0.32;;;;;;;24.73;92.46;98204.91;7390003;19;20010;-56
2022/12/19 10:02:56;;;;;;;0.43;0.25;;;;;;;24.81;91.98;98208.31;7391820;19;20034;-56
2022/12/19 10:05:46;;;;;;;0.28;0.28;;;;;;;24.55;92.91;98213.00;7389969;19;20014;-56
2022/12/19 10:08:34;;;;;;;0.20;0.20;;;;;;;24.76;93.00;98217.94;7389128;19;20015;-56
2022/12/19 10:11:06;;;;;;;0.25;0.25;;;;;;;24.47;93.40;98201.06;7395660;19;20301;-56
2022/12/19 10:14:09;;;;;;;3.92;0.63;;;;;;;24.70;92.77;98200.44;7397429;19;20015;-56
2022/12/19 10:16:58;;;;;;;0.28;0.28;;;;;;;24.54;93.14;98193.66;7396653;19;20018;-56
2022/12/19 10:19:37;;;;;;;0.00;0.00;;;;;;;24.50;93.77;98187.72;7401706;19;20014;-56
2022/12/19 10:22:42;;;;;;;0.00;0.00;;;;;;;24.49;94.10;98180.56;7398282;19;20014;-56
2022/12/19 10:25:33;;;;;;;0.00;0.00;;;;;;;24.35;94.09;98171.06;7394352;19;20058;-56
2022/12/19 10:28:02;;;;;;;;;;;;;;;24.23;95.06;98175.97;7394619;19;20010;-56
2022/12/19 10:30:35;;;;;;;0.10;0.10;;;;;;;24.16;96.18;98165.53;7394954;19;19915;-56
2022/12/19 10:33:01;;;;;;;0.10;0.10;;;;;;;24.40;94.65;98164.31;7399476;19;20038;-56
2022/12/19 10:35:44;;;;;;;0.00;0.00;;;;;;;24.37;95.02;98151.28;7396927;19;20102;-56
2022/12/19 10:38:10;;;;;;;0.00;0.00;;;;;;;24.42;94.47;98153.03;7395978;19;20040;-56
2022/12/19 10:40:43;;;;;;;3.25;1.38;;;;;;;24.48;94.12;98157.03;7395154;19;20010;-56
2022/12/19 10:43:31;;;;;;;0.25;0.25;;;;;;;24.45;94.02;98151.84;7399786;19;20007;-56
2022/12/19 10:46:02;;;;;;;0.10;0.10;;;;;;;24.28;95.24;98149.28;7396446;19;20022;-56
2022/12/19 10:48:29;;;;;;;;;;;;;;;24.40;94.41;98150.06;7396232;19;20027;-56
2022/12/19 10:50:55;;;;;;;0.38;0.38;;;;;;;24.54;94.16;98148.13;7397420;19;20423;-56
2022/12/19 10:53:29;;;;;;;1.83;0.35;;;;;;;24.79;92.42;98137.72;7399977;19;20033;-56
2022/12/19 10:56:11;;;;;;;0.00;0.00;;;;;;;24.81;92.53;98134.25;7400337;19;20015;-56
2022/12/19 10:58:43;;;;;;;0.13;0.13;;;;;;;24.27;94.86;98142.09;7395770;19;20010;-56
2022/12/19 11:01:25;;;;;;;0.00;0.00;;;;;;;24.41;94.77;98134.47;7394463;19;20474;-56
2022/12/19 11:04:25;;;;;;;0.00;0.00;;;;;;;24.52;93.70;98117.44;7394341;19;20035;-56
2022/12/19 11:07:03;;;;;;;0.10;0.00;;;;;;;24.56;93.01;98128.34;7397880;19;20438;-56
2022/12/19 11:09:38;;;;;;;6.20;0.80;;;;;;;24.69;92.88;98108.56;7395452;19;20015;-56
2022/12/19 11:12:07;;;;;;;0.10;0.10;;;;;;;24.84;91.58;98118.78;7396332;19;20039;-56
2022/12/19 11:14:36;;;;;;;2.10;0.20;;;;;;;25.04;90.62;98102.94;7394960;19;20019;-56
2022/12/19 11:17:03;;;;;;;0.10;0.10;;;;;;;24.90;90.95;98122.03;7395203;19;20110;-56
2022/12/19 11:19:38;;;;;;;0.20;0.20;;;;;;;25.11;89.55;98113.38;7395633;19;20019;-55
2022/12/19 11:22:23;;;;;;;0.73;0.45;;;;;;;25.09;89.16;98104.69;7394904;19;20014;-56
2022/12/19 11:24:53;;;;;;;5.57;0.57;;;;;;;25.14;88.14;98080.81;7393894;19;20122;-56
2022/12/19 11:27:42;;;;;;;1.70;0.65;;;;;;;25.22;88.32;98104.09;7393352;19;20025;-56
2022/12/19 11:30:18;;;;;;;1.25;0.30;;;;;;;25.14;88.40;98080.81;7395285;19;20015;-55
2022/12/19 11:32:46;;;;;;;0.38;0.10;;;;;;;24.97;88.99;98101.09;7396458;19;20340;-55
2022/12/19 11:35:18;;;;;;;0.00;0.00;;;;;;;24.52;91.21;98088.97;7393753;19;20038;-55
2022/12/19 11:37:51;;;;;;;0.10;0.10;;;;;;;24.99;90.15;98094.78;7394306;19;20159;-56
2022/12/19 11:40:43;;;;;;;0.10;0.10;;;;;;;24.75;89.38;98088.31;7394747;19;20035;-56
2022/12/19 11:43:38;;;;;;;0.68;0.38;;;;;;;24.94;89.51;98081.66;7396753;19;20011;-56
2022/12/19 11:46:04;;;;;;;0.20;0.20;;;;;;;24.97;89.31;98074.72;7391267;19;20074;-56
2022/12/19 11:48:46;;;;;;;0.17;0.17;;;;;;;25.18;88.52;98072.50;7392588;19;20014;-56
2022/12/19 11:51:27;;;;;;;0.08;0.08;;;;;;;25.26;87.94;98072.97;7394100;19;20638;-56